Terminal Aerodrome Forecast
Issued by NWS

Home | Current Version | Previous Version | Text Only | Print | Product List | Glossary On
Versions: 1 2 3 4 5 6 7 8 9 10 11 12 13 14 15 16 17 18 19 20 21 22 23 24 25 26 27 28 29 30 31 32 33
000
FTUS44 KBMX 061133
TAFASN
TAF
KASN 061133Z 0612/0712 14004KT 5SM -SHRA BR BKN009 OVC012
      TEMPO 0612/0614 SCT009 BKN012
     FM061600 26010G17KT P6SM OVC009
     FM070000 30005KT P6SM OVC009=

USA.gov is the U.S. government's official web portal to all federal, state and local government web resources and services.